sensor_id;sensor_type;location;lat;lon;timestamp;temperature;humidity
23497;DHT22;11925;48.122;11.560;2024-01-30T00:02:26;9.40;86.70
23497;DHT22;11925;48.122;11.560;2024-01-30T00:04:55;9.40;86.60
23497;DHT22;11925;48.122;11.560;2024-01-30T00:07:23;9.30;86.80
23497;DHT22;11925;48.122;11.560;2024-01-30T00:09:52;9.30;86.70
23497;DHT22;11925;48.122;11.560;2024-01-30T00:12:20;9.30;86.70
23497;DHT22;11925;48.122;11.560;2024-01-30T00:14:49;9.30;86.80
23497;DHT22;11925;48.122;11.560;2024-01-30T00:17:21;9.30;86.80
23497;DHT22;11925;48.122;11.560;2024-01-30T00:19:51;9.20;86.80
23497;DHT22;11925;48.122;11.560;2024-01-30T00:22:19;9.20;86.70
23497;DHT22;11925;48.122;11.560;2024-01-30T00:24:48;9.20;86.70
23497;DHT22;11925;48.122;11.560;2024-01-30T00:27:16;9.20;86.80
23497;DHT22;11925;48.122;11.560;2024-01-30T00:29:45;9.20;86.70
23497;DHT22;11925;48.122;11.560;2024-01-30T00:32:13;9.20;86.70
23497;DHT22;11925;48.122;11.560;2024-01-30T00:34:42;9.20;86.70
23497;DHT22;11925;48.122;11.560;2024-01-30T00:37:12;9.20;86.80
23497;DHT22;11925;48.122;11.560;2024-01-30T00:39:40;9.20;86.80
23497;DHT22;11925;48.122;11.560;2024-01-30T00:42:09;9.10;86.80
23497;DHT22;11925;48.122;11.560;2024-01-30T00:44:37;9.10;86.90
23497;DHT22;11925;48.122;11.560;2024-01-30T00:47:06;9.10;86.80
23497;DHT22;11925;48.122;11.560;2024-01-30T00:49:35;9.10;86.90
23497;DHT22;11925;48.122;11.560;2024-01-30T00:52:04;9.20;86.80
23497;DHT22;11925;48.122;11.560;2024-01-30T00:54:34;9.10;86.80
23497;DHT22;11925;48.122;11.560;2024-01-30T00:57:03;9.20;86.80
23497;DHT22;11925;48.122;11.560;2024-01-30T00:59:32;9.10;86.70
23497;DHT22;11925;48.122;11.560;2024-01-30T01:02:00;9.10;86.80
23497;DHT22;11925;48.122;11.560;2024-01-30T01:04:29;9.10;86.90
23497;DHT22;11925;48.122;11.560;2024-01-30T01:06:57;9.10;86.80
23497;DHT22;11925;48.122;11.560;2024-01-30T01:09:26;9.10;86.80
23497;DHT22;11925;48.122;11.560;2024-01-30T01:11:56;9.10;86.80
23497;DHT22;11925;48.122;11.560;2024-01-30T01:14:24;9.00;86.80
23497;DHT22;11925;48.122;11.560;2024-01-30T01:16:53;9.10;86.80
23497;DHT22;11925;48.122;11.560;2024-01-30T01:19:21;9.00;86.80
23497;DHT22;11925;48.122;11.560;2024-01-30T01:21:50;9.00;86.80
23497;DHT22;11925;48.122;11.560;2024-01-30T01:24:18;9.00;86.90
23497;DHT22;11925;48.122;11.560;2024-01-30T01:26:47;9.00;86.80
23497;DHT22;11925;48.122;11.560;2024-01-30T01:29:17;9.00;86.90
23497;DHT22;11925;48.122;11.560;2024-01-30T01:31:46;9.00;86.90
23497;DHT22;11925;48.122;11.560;2024-01-30T01:34:14;9.00;86.70
23497;DHT22;11925;48.122;11.560;2024-01-30T01:36:43;9.00;86.70
23497;DHT22;11925;48.122;11.560;2024-01-30T01:39:11;8.90;86.60
23497;DHT22;11925;48.122;11.560;2024-01-30T01:41:39;9.00;86.60
23497;DHT22;11925;48.122;11.560;2024-01-30T01:44:09;9.00;86.60
23497;DHT22;11925;48.122;11.560;2024-01-30T01:46:38;8.90;86.50
23497;DHT22;11925;48.122;11.560;2024-01-30T01:49:07;8.90;86.50
23497;DHT22;11925;48.122;11.560;2024-01-30T01:51:36;8.90;86.50
23497;DHT22;11925;48.122;11.560;2024-01-30T01:54:07;8.90;86.50
23497;DHT22;11925;48.122;11.560;2024-01-30T01:56:36;8.90;86.50
23497;DHT22;11925;48.122;11.560;2024-01-30T01:59:06;8.90;86.50
23497;DHT22;11925;48.122;11.560;2024-01-30T02:01:38;8.90;86.40
23497;DHT22;11925;48.122;11.560;2024-01-30T02:04:08;8.90;86.40
23497;DHT22;11925;48.122;11.560;2024-01-30T02:06:37;8.90;86.40
23497;DHT22;11925;48.122;11.560;2024-01-30T02:09:06;8.90;86.40
23497;DHT22;11925;48.122;11.560;2024-01-30T02:11:36;8.90;86.40
23497;DHT22;11925;48.122;11.560;2024-01-30T02:14:05;8.90;86.50
23497;DHT22;11925;48.122;11.560;2024-01-30T02:16:34;8.90;86.30
23497;DHT22;11925;48.122;11.560;2024-01-30T02:19:05;8.90;86.30
23497;DHT22;11925;48.122;11.560;2024-01-30T02:21:36;8.90;86.30
23497;DHT22;11925;48.122;11.560;2024-01-30T02:24:05;8.90;86.30
23497;DHT22;11925;48.122;11.560;2024-01-30T02:26:34;8.90;86.30
23497;DHT22;11925;48.122;11.560;2024-01-30T02:29:02;8.80;86.30
23497;DHT22;11925;48.122;11.560;2024-01-30T02:31:30;8.80;86.30
23497;DHT22;11925;48.122;11.560;2024-01-30T02:33:59;8.80;86.30
23497;DHT22;11925;48.122;11.560;2024-01-30T02:36:27;8.80;86.30
23497;DHT22;11925;48.122;11.560;2024-01-30T02:38:57;8.90;86.30
23497;DHT22;11925;48.122;11.560;2024-01-30T02:41:26;8.90;86.20
23497;DHT22;11925;48.122;11.560;2024-01-30T02:43:54;8.90;86.20
23497;DHT22;11925;48.122;11.560;2024-01-30T02:46:22;8.90;86.20
23497;DHT22;11925;48.122;11.560;2024-01-30T02:48:51;8.90;86.20
23497;DHT22;11925;48.122;11.560;2024-01-30T02:51:20;8.80;86.20
23497;DHT22;11925;48.122;11.560;2024-01-30T02:53:48;8.80;86.30
23497;DHT22;11925;48.122;11.560;2024-01-30T02:56:18;8.70;86.30
23497;DHT22;11925;48.122;11.560;2024-01-30T02:58:46;8.80;86.20
23497;DHT22;11925;48.122;11.560;2024-01-30T03:01:15;8.80;86.20
23497;DHT22;11925;48.122;11.560;2024-01-30T03:03:43;8.80;86.20
23497;DHT22;11925;48.122;11.560;2024-01-30T03:06:12;8.90;86.20
23497;DHT22;11925;48.122;11.560;2024-01-30T03:08:42;8.80;86.20
23497;DHT22;11925;48.122;11.560;2024-01-30T03:11:10;8.80;86.20
23497;DHT22;11925;48.122;11.560;2024-01-30T03:13:40;8.80;86.10
23497;DHT22;11925;48.122;11.560;2024-01-30T03:16:08;8.80;86.10
23497;DHT22;11925;48.122;11.560;2024-01-30T03:18:37;8.80;86.10
23497;DHT22;11925;48.122;11.560;2024-01-30T03:21:05;8.80;86.10
23497;DHT22;11925;48.122;11.560;2024-01-30T03:23:34;8.80;86.10
23497;DHT22;11925;48.122;11.560;2024-01-30T03:26:02;8.90;86.10
23497;DHT22;11925;48.122;11.560;2024-01-30T03:28:33;8.90;86.10
23497;DHT22;11925;48.122;11.560;2024-01-30T03:31:03;8.90;86.00
23497;DHT22;11925;48.122;11.560;2024-01-30T03:33:32;8.90;86.00
23497;DHT22;11925;48.122;11.560;2024-01-30T03:36:04;8.90;86.00
23497;DHT22;11925;48.122;11.560;2024-01-30T03:38:34;8.80;85.90
23497;DHT22;11925;48.122;11.560;2024-01-30T03:41:03;8.80;85.90
23497;DHT22;11925;48.122;11.560;2024-01-30T03:43:31;8.80;85.90
23497;DHT22;11925;48.122;11.560;2024-01-30T03:46:02;8.80;85.90
23497;DHT22;11925;48.122;11.560;2024-01-30T03:48:31;8.80;85.90
23497;DHT22;11925;48.122;11.560;2024-01-30T03:50:59;8.80;85.90
23497;DHT22;11925;48.122;11.560;2024-01-30T03:53:28;8.80;86.00
23497;DHT22;11925;48.122;11.560;2024-01-30T03:55:56;8.80;86.10
23497;DHT22;11925;48.122;11.560;2024-01-30T03:58:25;8.70;86.10
23497;DHT22;11925;48.122;11.560;2024-01-30T04:00:53;8.70;86.10
23497;DHT22;11925;48.122;11.560;2024-01-30T04:03:23;8.70;86.00
23497;DHT22;11925;48.122;11.560;2024-01-30T04:05:52;8.70;86.00
23497;DHT22;11925;48.122;11.560;2024-01-30T04:08:20;8.70;86.10
23497;DHT22;11925;48.122;11.560;2024-01-30T04:10:49;8.70;86.10
23497;DHT22;11925;48.122;11.560;2024-01-30T04:13:17;8.70;86.10
23497;DHT22;11925;48.122;11.560;2024-01-30T04:15:46;8.70;86.00
23497;DHT22;11925;48.122;11.560;2024-01-30T04:18:14;8.70;86.00
23497;DHT22;11925;48.122;11.560;2024-01-30T04:20:45;8.70;86.00
23497;DHT22;11925;48.122;11.560;2024-01-30T04:23:13;8.70;85.90
23497;DHT22;11925;48.122;11.560;2024-01-30T04:25:42;8.70;85.90
23497;DHT22;11925;48.122;11.560;2024-01-30T04:28:10;8.70;85.90
23497;DHT22;11925;48.122;11.560;2024-01-30T04:30:40;8.70;85.80
23497;DHT22;11925;48.122;11.560;2024-01-30T04:33:08;8.70;85.80
23497;DHT22;11925;48.122;11.560;2024-01-30T04:35:38;8.70;85.70
23497;DHT22;11925;48.122;11.560;2024-01-30T04:38:08;8.70;85.70
23497;DHT22;11925;48.122;11.560;2024-01-30T04:40:36;8.70;85.60
23497;DHT22;11925;48.122;11.560;2024-01-30T04:43:05;8.70;85.60
23497;DHT22;11925;48.122;11.560;2024-01-30T04:45:33;8.70;85.50
23497;DHT22;11925;48.122;11.560;2024-01-30T04:48:02;8.70;85.60
23497;DHT22;11925;48.122;11.560;2024-01-30T04:50:30;8.70;85.60
23497;DHT22;11925;48.122;11.560;2024-01-30T04:52:59;8.70;84.80
23497;DHT22;11925;48.122;11.560;2024-01-30T04:55:28;8.70;85.60
23497;DHT22;11925;48.122;11.560;2024-01-30T04:57:57;8.70;85.60
23497;DHT22;11925;48.122;11.560;2024-01-30T05:00:26;8.70;85.60
23497;DHT22;11925;48.122;11.560;2024-01-30T05:02:55;8.70;85.50
23497;DHT22;11925;48.122;11.560;2024-01-30T05:05:23;8.70;85.50
23497;DHT22;11925;48.122;11.560;2024-01-30T05:07:52;8.70;85.50
23497;DHT22;11925;48.122;11.560;2024-01-30T05:10:20;8.70;85.40
23497;DHT22;11925;48.122;11.560;2024-01-30T05:12:50;8.70;85.40
23497;DHT22;11925;48.122;11.560;2024-01-30T05:15:19;8.80;85.40
23497;DHT22;11925;48.122;11.560;2024-01-30T05:17:47;8.70;85.40
23497;DHT22;11925;48.122;11.560;2024-01-30T05:20:16;8.80;85.40
23497;DHT22;11925;48.122;11.560;2024-01-30T05:22:45;8.80;85.40
23497;DHT22;11925;48.122;11.560;2024-01-30T05:25:14;8.70;85.40
23497;DHT22;11925;48.122;11.560;2024-01-30T05:27:42;8.80;85.40
23497;DHT22;11925;48.122;11.560;2024-01-30T05:30:13;8.70;85.20
23497;DHT22;11925;48.122;11.560;2024-01-30T05:32:43;8.70;85.20
23497;DHT22;11925;48.122;11.560;2024-01-30T05:35:11;8.70;85.10
23497;DHT22;11925;48.122;11.560;2024-01-30T05:37:40;8.80;85.10
23497;DHT22;11925;48.122;11.560;2024-01-30T05:40:09;8.80;85.10
23497;DHT22;11925;48.122;11.560;2024-01-30T05:42:38;8.80;85.10
23497;DHT22;11925;48.122;11.560;2024-01-30T05:45:09;8.80;85.00
23497;DHT22;11925;48.122;11.560;2024-01-30T05:47:39;8.80;85.10
23497;DHT22;11925;48.122;11.560;2024-01-30T05:50:08;8.80;85.00
23497;DHT22;11925;48.122;11.560;2024-01-30T05:52:36;8.70;85.00
23497;DHT22;11925;48.122;11.560;2024-01-30T05:55:05;8.70;85.00
23497;DHT22;11925;48.122;11.560;2024-01-30T05:57:33;8.80;85.00
23497;DHT22;11925;48.122;11.560;2024-01-30T06:00:02;8.80;85.00
23497;DHT22;11925;48.122;11.560;2024-01-30T06:02:32;8.80;85.20
23497;DHT22;11925;48.122;11.560;2024-01-30T06:05:02;8.70;85.10
23497;DHT22;11925;48.122;11.560;2024-01-30T06:07:31;8.80;85.10
23497;DHT22;11925;48.122;11.560;2024-01-30T06:10:04;8.80;85.20
23497;DHT22;11925;48.122;11.560;2024-01-30T06:12:32;8.80;85.30
23497;DHT22;11925;48.122;11.560;2024-01-30T06:15:03;8.70;85.40
23497;DHT22;11925;48.122;11.560;2024-01-30T06:17:31;8.70;85.50
23497;DHT22;11925;48.122;11.560;2024-01-30T06:20:01;8.70;85.40
23497;DHT22;11925;48.122;11.560;2024-01-30T06:22:30;8.70;85.50
23497;DHT22;11925;48.122;11.560;2024-01-30T06:24:58;8.70;86.40
23497;DHT22;11925;48.122;11.560;2024-01-30T06:27:27;8.70;86.10
23497;DHT22;11925;48.122;11.560;2024-01-30T06:29:55;8.70;85.50
23497;DHT22;11925;48.122;11.560;2024-01-30T06:32:24;8.70;85.60
23497;DHT22;11925;48.122;11.560;2024-01-30T06:34:52;8.70;85.60
23497;DHT22;11925;48.122;11.560;2024-01-30T06:37:22;8.70;85.50
23497;DHT22;11925;48.122;11.560;2024-01-30T06:39:51;8.70;85.60
23497;DHT22;11925;48.122;11.560;2024-01-30T06:42:20;8.70;85.50
23497;DHT22;11925;48.122;11.560;2024-01-30T06:44:48;8.70;85.50
23497;DHT22;11925;48.122;11.560;2024-01-30T06:47:17;8.70;85.40
23497;DHT22;11925;48.122;11.560;2024-01-30T06:49:45;8.70;85.20
23497;DHT22;11925;48.122;11.560;2024-01-30T06:52:14;8.70;85.10
23497;DHT22;11925;48.122;11.560;2024-01-30T06:54:44;8.70;85.10
23497;DHT22;11925;48.122;11.560;2024-01-30T06:57:12;8.70;85.00
23497;DHT22;11925;48.122;11.560;2024-01-30T06:59:41;8.80;84.80
23497;DHT22;11925;48.122;11.560;2024-01-30T07:02:11;8.80;84.80
23497;DHT22;11925;48.122;11.560;2024-01-30T07:04:40;8.80;84.80
23497;DHT22;11925;48.122;11.560;2024-01-30T07:07:13;8.80;84.90
23497;DHT22;11925;48.122;11.560;2024-01-30T07:09:44;8.70;84.80
23497;DHT22;11925;48.122;11.560;2024-01-30T07:12:14;8.70;84.90
23497;DHT22;11925;48.122;11.560;2024-01-30T07:14:43;8.70;85.00
23497;DHT22;11925;48.122;11.560;2024-01-30T07:17:11;8.80;85.10
23497;DHT22;11925;48.122;11.560;2024-01-30T07:19:40;8.80;85.10
23497;DHT22;11925;48.122;11.560;2024-01-30T07:22:08;8.80;85.10
23497;DHT22;11925;48.122;11.560;2024-01-30T07:24:43;8.80;85.20
23497;DHT22;11925;48.122;11.560;2024-01-30T07:27:15;8.80;85.10
23497;DHT22;11925;48.122;11.560;2024-01-30T07:29:45;8.80;85.20
23497;DHT22;11925;48.122;11.560;2024-01-30T07:32:13;8.80;85.20
23497;DHT22;11925;48.122;11.560;2024-01-30T07:34:42;8.90;85.10
23497;DHT22;11925;48.122;11.560;2024-01-30T07:37:29;8.90;85.10
23497;DHT22;11925;48.122;11.560;2024-01-30T07:39:58;8.90;85.10
23497;DHT22;11925;48.122;11.560;2024-01-30T07:42:27;8.90;85.20
23497;DHT22;11925;48.122;11.560;2024-01-30T07:44:55;8.90;85.20
23497;DHT22;11925;48.122;11.560;2024-01-30T07:47:24;9.00;85.40
23497;DHT22;11925;48.122;11.560;2024-01-30T07:49:52;9.00;85.40
23497;DHT22;11925;48.122;11.560;2024-01-30T07:52:21;9.00;85.40
23497;DHT22;11925;48.122;11.560;2024-01-30T07:54:50;9.00;85.50
23497;DHT22;11925;48.122;11.560;2024-01-30T07:57:20;9.00;85.60
23497;DHT22;11925;48.122;11.560;2024-01-30T07:59:49;9.00;85.70
23497;DHT22;11925;48.122;11.560;2024-01-30T08:02:17;9.10;86.00
23497;DHT22;11925;48.122;11.560;2024-01-30T08:04:46;9.10;86.10
23497;DHT22;11925;48.122;11.560;2024-01-30T08:07:17;9.10;86.30
23497;DHT22;11925;48.122;11.560;2024-01-30T08:09:45;9.10;86.10
23497;DHT22;11925;48.122;11.560;2024-01-30T08:12:14;9.10;85.90
23497;DHT22;11925;48.122;11.560;2024-01-30T08:14:43;9.10;85.70
23497;DHT22;11925;48.122;11.560;2024-01-30T08:17:12;9.10;85.60
23497;DHT22;11925;48.122;11.560;2024-01-30T08:19:40;9.10;85.60
23497;DHT22;11925;48.122;11.560;2024-01-30T08:22:09;9.10;85.60
23497;DHT22;11925;48.122;11.560;2024-01-30T08:24:37;9.10;85.80
23497;DHT22;11925;48.122;11.560;2024-01-30T08:27:07;9.20;85.90
23497;DHT22;11925;48.122;11.560;2024-01-30T08:29:36;9.20;86.00
23497;DHT22;11925;48.122;11.560;2024-01-30T08:32:07;9.20;86.30
23497;DHT22;11925;48.122;11.560;2024-01-30T08:34:35;9.20;86.50
23497;DHT22;11925;48.122;11.560;2024-01-30T08:37:04;9.20;86.80
23497;DHT22;11925;48.122;11.560;2024-01-30T08:39:32;9.30;87.10
23497;DHT22;11925;48.122;11.560;2024-01-30T08:42:01;9.30;87.30
23497;DHT22;11925;48.122;11.560;2024-01-30T08:44:29;9.30;87.50
23497;DHT22;11925;48.122;11.560;2024-01-30T08:46:58;9.30;87.70
23497;DHT22;11925;48.122;11.560;2024-01-30T08:49:28;9.30;87.70
23497;DHT22;11925;48.122;11.560;2024-01-30T08:51:56;9.30;88.00
23497;DHT22;11925;48.122;11.560;2024-01-30T08:54:25;9.30;88.10
23497;DHT22;11925;48.122;11.560;2024-01-30T08:56:53;9.30;88.10
23497;DHT22;11925;48.122;11.560;2024-01-30T08:59:23;9.30;88.30
23497;DHT22;11925;48.122;11.560;2024-01-30T09:01:52;9.30;88.50
23497;DHT22;11925;48.122;11.560;2024-01-30T09:04:38;9.40;88.50
23497;DHT22;11925;48.122;11.560;2024-01-30T09:07:09;9.40;88.50
23497;DHT22;11925;48.122;11.560;2024-01-30T09:09:38;9.40;88.60
23497;DHT22;11925;48.122;11.560;2024-01-30T09:12:08;9.40;88.80
23497;DHT22;11925;48.122;11.560;2024-01-30T09:14:39;9.40;88.70
23497;DHT22;11925;48.122;11.560;2024-01-30T09:17:08;9.40;88.70
23497;DHT22;11925;48.122;11.560;2024-01-30T09:19:40;9.40;88.80
23497;DHT22;11925;48.122;11.560;2024-01-30T09:22:08;9.40;88.90
23497;DHT22;11925;48.122;11.560;2024-01-30T09:24:37;9.40;88.90
23497;DHT22;11925;48.122;11.560;2024-01-30T09:27:05;9.40;88.90
23497;DHT22;11925;48.122;11.560;2024-01-30T09:29:34;9.50;89.10
23497;DHT22;11925;48.122;11.560;2024-01-30T09:32:05;9.50;89.10
23497;DHT22;11925;48.122;11.560;2024-01-30T09:34:33;9.40;89.10
23497;DHT22;11925;48.122;11.560;2024-01-30T09:37:04;9.50;89.20
23497;DHT22;11925;48.122;11.560;2024-01-30T09:39:33;9.50;89.20
23497;DHT22;11925;48.122;11.560;2024-01-30T09:42:05;9.50;89.30
23497;DHT22;11925;48.122;11.560;2024-01-30T09:44:38;9.50;90.00
23497;DHT22;11925;48.122;11.560;2024-01-30T09:47:10;9.50;89.30
23497;DHT22;11925;48.122;11.560;2024-01-30T09:49:39;9.50;89.30
23497;DHT22;11925;48.122;11.560;2024-01-30T09:52:11;9.50;89.30
23497;DHT22;11925;48.122;11.560;2024-01-30T09:54:41;9.50;89.30
23497;DHT22;11925;48.122;11.560;2024-01-30T09:57:11;9.50;89.30
23497;DHT22;11925;48.122;11.560;2024-01-30T09:59:42;9.50;89.30
23497;DHT22;11925;48.122;11.560;2024-01-30T10:02:11;9.50;89.30
23497;DHT22;11925;48.122;11.560;2024-01-30T10:04:39;9.50;89.30
23497;DHT22;11925;48.122;11.560;2024-01-30T10:07:11;9.50;89.40
23497;DHT22;11925;48.122;11.560;2024-01-30T10:09:41;9.50;89.40
23497;DHT22;11925;48.122;11.560;2024-01-30T10:12:09;9.50;89.40
23497;DHT22;11925;48.122;11.560;2024-01-30T10:14:39;9.50;89.50
23497;DHT22;11925;48.122;11.560;2024-01-30T10:17:08;9.50;89.50
23497;DHT22;11925;48.122;11.560;2024-01-30T10:19:48;9.50;89.50
23497;DHT22;11925;48.122;11.560;2024-01-30T10:22:18;9.60;89.70
23497;DHT22;11925;48.122;11.560;2024-01-30T10:24:46;9.60;89.70
23497;DHT22;11925;48.122;11.560;2024-01-30T10:27:16;9.50;89.60
23497;DHT22;11925;48.122;11.560;2024-01-30T10:29:48;9.50;89.50
23497;DHT22;11925;48.122;11.560;2024-01-30T10:32:17;9.50;89.50
23497;DHT22;11925;48.122;11.560;2024-01-30T10:34:46;9.50;89.70
23497;DHT22;11925;48.122;11.560;2024-01-30T10:37:15;9.60;89.70
23497;DHT22;11925;48.122;11.560;2024-01-30T10:39:46;9.60;89.60
23497;DHT22;11925;48.122;11.560;2024-01-30T10:42:16;9.60;89.70
23497;DHT22;11925;48.122;11.560;2024-01-30T10:44:52;9.60;89.80
23497;DHT22;11925;48.122;11.560;2024-01-30T10:47:27;9.60;89.80
23497;DHT22;11925;48.122;11.560;2024-01-30T10:49:56;9.60;89.80
23497;DHT22;11925;48.122;11.560;2024-01-30T10:52:26;9.60;89.90
23497;DHT22;11925;48.122;11.560;2024-01-30T10:54:58;9.60;90.00
23497;DHT22;11925;48.122;11.560;2024-01-30T10:57:27;9.60;90.00
23497;DHT22;11925;48.122;11.560;2024-01-30T10:59:58;9.60;90.00
23497;DHT22;11925;48.122;11.560;2024-01-30T11:02:27;9.60;90.00
23497;DHT22;11925;48.122;11.560;2024-01-30T11:04:57;9.60;90.00
23497;DHT22;11925;48.122;11.560;2024-01-30T11:07:28;9.60;90.00
23497;DHT22;11925;48.122;11.560;2024-01-30T11:10:02;9.60;90.00
23497;DHT22;11925;48.122;11.560;2024-01-30T11:12:32;9.60;90.10
23497;DHT22;11925;48.122;11.560;2024-01-30T11:15:06;9.60;90.20
23497;DHT22;11925;48.122;11.560;2024-01-30T11:17:42;9.60;90.10
23497;DHT22;11925;48.122;11.560;2024-01-30T11:20:11;9.60;90.20
23497;DHT22;11925;48.122;11.560;2024-01-30T11:22:44;9.60;90.20
23497;DHT22;11925;48.122;11.560;2024-01-30T11:25:15;9.60;90.30
23497;DHT22;11925;48.122;11.560;2024-01-30T11:27:45;9.60;90.30
23497;DHT22;11925;48.122;11.560;2024-01-30T11:30:21;9.60;90.30
23497;DHT22;11925;48.122;11.560;2024-01-30T11:33:05;9.60;90.40
23497;DHT22;11925;48.122;11.560;2024-01-30T11:35:36;9.60;90.50
23497;DHT22;11925;48.122;11.560;2024-01-30T11:38:08;9.60;90.50
23497;DHT22;11925;48.122;11.560;2024-01-30T11:40:38;9.60;90.50
23497;DHT22;11925;48.122;11.560;2024-01-30T11:43:08;9.60;90.50
23497;DHT22;11925;48.122;11.560;2024-01-30T11:45:37;9.60;90.50
23497;DHT22;11925;48.122;11.560;2024-01-30T11:48:07;9.60;90.50
23497;DHT22;11925;48.122;11.560;2024-01-30T11:50:38;9.60;90.50
23497;DHT22;11925;48.122;11.560;2024-01-30T11:53:07;9.60;90.50
23497;DHT22;11925;48.122;11.560;2024-01-30T11:55:37;9.70;90.50
23497;DHT22;11925;48.122;11.560;2024-01-30T11:58:06;9.60;90.50
23497;DHT22;11925;48.122;11.560;2024-01-30T12:00:34;9.70;90.50
23497;DHT22;11925;48.122;11.560;2024-01-30T12:03:03;9.60;90.50
23497;DHT22;11925;48.122;11.560;2024-01-30T12:05:34;9.70;90.60
23497;DHT22;11925;48.122;11.560;2024-01-30T12:08:06;9.60;90.60
23497;DHT22;11925;48.122;11.560;2024-01-30T12:10:35;9.70;90.60
23497;DHT22;11925;48.122;11.560;2024-01-30T12:13:05;9.60;90.50
23497;DHT22;11925;48.122;11.560;2024-01-30T12:15:33;9.60;90.50
23497;DHT22;11925;48.122;11.560;2024-01-30T12:18:06;9.60;90.50
23497;DHT22;11925;48.122;11.560;2024-01-30T12:20:35;9.60;90.60
23497;DHT22;11925;48.122;11.560;2024-01-30T12:23:04;9.60;90.60
23497;DHT22;11925;48.122;11.560;2024-01-30T12:25:32;9.70;90.60
23497;DHT22;11925;48.122;11.560;2024-01-30T12:28:01;9.70;90.60
23497;DHT22;11925;48.122;11.560;2024-01-30T12:30:31;9.70;90.60
23497;DHT22;11925;48.122;11.560;2024-01-30T12:33:00;9.70;90.60
23497;DHT22;11925;48.122;11.560;2024-01-30T12:35:31;9.60;90.50
23497;DHT22;11925;48.122;11.560;2024-01-30T12:38:00;9.70;90.50
23497;DHT22;11925;48.122;11.560;2024-01-30T12:40:29;9.70;90.60
23497;DHT22;11925;48.122;11.560;2024-01-30T12:42:57;9.70;90.50
23497;DHT22;11925;48.122;11.560;2024-01-30T12:45:26;9.70;90.60
23497;DHT22;11925;48.122;11.560;2024-01-30T12:47:56;9.70;90.50
23497;DHT22;11925;48.122;11.560;2024-01-30T12:50:25;9.70;90.60
23497;DHT22;11925;48.122;11.560;2024-01-30T12:52:54;9.70;90.60
23497;DHT22;11925;48.122;11.560;2024-01-30T12:55:23;9.70;90.60
23497;DHT22;11925;48.122;11.560;2024-01-30T12:57:55;9.70;90.70
23497;DHT22;11925;48.122;11.560;2024-01-30T13:00:24;9.60;90.60
23497;DHT22;11925;48.122;11.560;2024-01-30T13:02:52;9.70;90.70
23497;DHT22;11925;48.122;11.560;2024-01-30T13:05:22;9.70;90.70
23497;DHT22;11925;48.122;11.560;2024-01-30T13:07:51;9.70;90.70
23497;DHT22;11925;48.122;11.560;2024-01-30T13:10:20;9.70;90.70
23497;DHT22;11925;48.122;11.560;2024-01-30T13:12:48;9.70;90.70
23497;DHT22;11925;48.122;11.560;2024-01-30T13:15:17;9.60;90.70
23497;DHT22;11925;48.122;11.560;2024-01-30T13:17:45;9.60;90.80
23497;DHT22;11925;48.122;11.560;2024-01-30T13:20:14;9.70;90.70
23497;DHT22;11925;48.122;11.560;2024-01-30T13:22:48;9.70;90.80
23497;DHT22;11925;48.122;11.560;2024-01-30T13:25:17;9.70;90.80
23497;DHT22;11925;48.122;11.560;2024-01-30T13:27:46;9.70;90.90
23497;DHT22;11925;48.122;11.560;2024-01-30T13:30:14;9.70;90.90
23497;DHT22;11925;48.122;11.560;2024-01-30T13:32:43;9.70;90.90
23497;DHT22;11925;48.122;11.560;2024-01-30T13:35:13;9.70;90.90
23497;DHT22;11925;48.122;11.560;2024-01-30T13:37:42;9.70;90.90
23497;DHT22;11925;48.122;11.560;2024-01-30T13:40:12;9.70;90.90
23497;DHT22;11925;48.122;11.560;2024-01-30T13:42:42;9.70;90.80
23497;DHT22;11925;48.122;11.560;2024-01-30T13:45:10;9.70;90.90
23497;DHT22;11925;48.122;11.560;2024-01-30T13:47:38;9.70;90.50
23497;DHT22;11925;48.122;11.560;2024-01-30T13:50:07;9.70;90.90
23497;DHT22;11925;48.122;11.560;2024-01-30T13:52:38;9.70;90.80
23497;DHT22;11925;48.122;11.560;2024-01-30T13:55:13;9.70;90.90
23497;DHT22;11925;48.122;11.560;2024-01-30T13:57:41;9.70;90.80
23497;DHT22;11925;48.122;11.560;2024-01-30T14:00:11;9.70;90.70
23497;DHT22;11925;48.122;11.560;2024-01-30T14:02:43;9.70;90.80
23497;DHT22;11925;48.122;11.560;2024-01-30T14:05:11;9.70;90.70
23497;DHT22;11925;48.122;11.560;2024-01-30T14:07:41;9.70;90.70
23497;DHT22;11925;48.122;11.560;2024-01-30T14:10:13;9.70;90.70
23497;DHT22;11925;48.122;11.560;2024-01-30T14:12:42;9.70;90.70
23497;DHT22;11925;48.122;11.560;2024-01-30T14:15:12;9.70;90.70
23497;DHT22;11925;48.122;11.560;2024-01-30T14:17:54;9.70;90.70
23497;DHT22;11925;48.122;11.560;2024-01-30T14:20:23;9.80;90.70
23497;DHT22;11925;48.122;11.560;2024-01-30T14:22:52;9.80;90.70
23497;DHT22;11925;48.122;11.560;2024-01-30T14:25:24;9.70;90.70
23497;DHT22;11925;48.122;11.560;2024-01-30T14:27:53;9.70;90.70
23497;DHT22;11925;48.122;11.560;2024-01-30T14:30:22;9.80;90.70
23497;DHT22;11925;48.122;11.560;2024-01-30T14:32:50;9.70;90.70
23497;DHT22;11925;48.122;11.560;2024-01-30T14:35:20;9.80;90.80
23497;DHT22;11925;48.122;11.560;2024-01-30T14:37:49;9.80;90.80
23497;DHT22;11925;48.122;11.560;2024-01-30T14:40:18;9.80;90.80
23497;DHT22;11925;48.122;11.560;2024-01-30T14:42:48;9.70;90.80
23497;DHT22;11925;48.122;11.560;2024-01-30T14:45:17;9.80;90.80
23497;DHT22;11925;48.122;11.560;2024-01-30T14:47:46;9.80;90.80
23497;DHT22;11925;48.122;11.560;2024-01-30T14:50:15;9.70;90.80
23497;DHT22;11925;48.122;11.560;2024-01-30T14:52:44;9.80;90.90
23497;DHT22;11925;48.122;11.560;2024-01-30T14:55:13;9.70;90.90
23497;DHT22;11925;48.122;11.560;2024-01-30T14:57:41;9.80;91.00
23497;DHT22;11925;48.122;11.560;2024-01-30T15:00:15;9.80;91.00
23497;DHT22;11925;48.122;11.560;2024-01-30T15:02:44;9.80;91.00
23497;DHT22;11925;48.122;11.560;2024-01-30T15:05:14;9.80;91.00
23497;DHT22;11925;48.122;11.560;2024-01-30T15:07:43;9.80;91.00
23497;DHT22;11925;48.122;11.560;2024-01-30T15:10:12;9.80;91.10
23497;DHT22;11925;48.122;11.560;2024-01-30T15:12:40;9.80;91.10
23497;DHT22;11925;48.122;11.560;2024-01-30T15:15:09;9.80;91.10
23497;DHT22;11925;48.122;11.560;2024-01-30T15:17:39;9.80;91.10
23497;DHT22;11925;48.122;11.560;2024-01-30T15:20:10;9.80;91.10
23497;DHT22;11925;48.122;11.560;2024-01-30T15:22:39;9.80;91.10
23497;DHT22;11925;48.122;11.560;2024-01-30T15:25:07;9.80;91.10
23497;DHT22;11925;48.122;11.560;2024-01-30T15:27:36;9.80;91.10
23497;DHT22;11925;48.122;11.560;2024-01-30T15:30:06;9.80;91.20
23497;DHT22;11925;48.122;11.560;2024-01-30T15:32:35;9.80;91.10
23497;DHT22;11925;48.122;11.560;2024-01-30T15:35:05;9.80;91.20
23497;DHT22;11925;48.122;11.560;2024-01-30T15:37:37;9.80;91.20
23497;DHT22;11925;48.122;11.560;2024-01-30T15:40:07;9.80;91.20
23497;DHT22;11925;48.122;11.560;2024-01-30T15:42:36;9.80;91.20
23497;DHT22;11925;48.122;11.560;2024-01-30T15:45:05;9.80;91.20